sensor_id;sensor_type;location;lat;lon;timestamp;P1;durP1;ratioP1;P2;durP2;ratioP2
60819;SDS011;46641;48.904;9.126;2023-11-21T00:02:38;1.73;;;1.43;;
60819;SDS011;46641;48.904;9.126;2023-11-21T00:07:30;1.17;;;1.07;;
60819;SDS011;46641;48.904;9.126;2023-11-21T00:12:20;1.50;;;1.10;;
60819;SDS011;46641;48.904;9.126;2023-11-21T00:17:11;1.92;;;1.40;;
60819;SDS011;46641;48.904;9.126;2023-11-21T00:22:01;1.73;;;1.13;;
60819;SDS011;46641;48.904;9.126;2023-11-21T00:26:51;1.63;;;1.53;;
60819;SDS011;46641;48.904;9.126;2023-11-21T00:31:43;1.47;;;1.37;;
60819;SDS011;46641;48.904;9.126;2023-11-21T00:36:34;2.37;;;1.10;;
60819;SDS011;46641;48.904;9.126;2023-11-21T00:41:24;1.43;;;1.30;;
60819;SDS011;46641;48.904;9.126;2023-11-21T00:46:17;3.30;;;1.30;;
60819;SDS011;46641;48.904;9.126;2023-11-21T00:51:07;2.77;;;1.47;;
60819;SDS011;46641;48.904;9.126;2023-11-21T00:55:58;2.53;;;1.13;;
60819;SDS011;46641;48.904;9.126;2023-11-21T01:00:48;1.48;;;1.27;;
60819;SDS011;46641;48.904;9.126;2023-11-21T01:05:38;1.38;;;1.27;;
60819;SDS011;46641;48.904;9.126;2023-11-21T01:10:29;1.17;;;1.03;;
60819;SDS011;46641;48.904;9.126;2023-11-21T01:15:19;1.77;;;1.40;;
60819;SDS011;46641;48.904;9.126;2023-11-21T01:20:09;1.40;;;1.30;;
60819;SDS011;46641;48.904;9.126;2023-11-21T01:25:02;1.93;;;1.50;;
60819;SDS011;46641;48.904;9.126;2023-11-21T01:29:56;1.87;;;1.30;;
60819;SDS011;46641;48.904;9.126;2023-11-21T01:34:47;1.27;;;1.03;;
60819;SDS011;46641;48.904;9.126;2023-11-21T01:39:38;2.10;;;1.30;;
60819;SDS011;46641;48.904;9.126;2023-11-21T01:44:29;1.77;;;1.10;;
60819;SDS011;46641;48.904;9.126;2023-11-21T01:49:19;3.03;;;1.17;;
60819;SDS011;46641;48.904;9.126;2023-11-21T01:54:10;2.20;;;1.23;;
60819;SDS011;46641;48.904;9.126;2023-11-21T01:59:01;2.00;;;1.47;;
60819;SDS011;46641;48.904;9.126;2023-11-21T02:03:52;1.60;;;1.13;;
60819;SDS011;46641;48.904;9.126;2023-11-21T02:08:44;2.83;;;1.50;;
60819;SDS011;46641;48.904;9.126;2023-11-21T02:13:34;2.90;;;1.33;;
60819;SDS011;46641;48.904;9.126;2023-11-21T02:18:25;2.50;;;1.50;;
60819;SDS011;46641;48.904;9.126;2023-11-21T02:23:15;1.77;;;1.23;;
60819;SDS011;46641;48.904;9.126;2023-11-21T02:28:06;2.43;;;1.33;;
60819;SDS011;46641;48.904;9.126;2023-11-21T02:32:56;1.83;;;1.20;;
60819;SDS011;46641;48.904;9.126;2023-11-21T02:37:47;2.07;;;1.23;;
60819;SDS011;46641;48.904;9.126;2023-11-21T02:42:41;2.53;;;1.20;;
60819;SDS011;46641;48.904;9.126;2023-11-21T02:47:31;1.63;;;1.10;;
60819;SDS011;46641;48.904;9.126;2023-11-21T02:52:21;1.85;;;1.10;;
60819;SDS011;46641;48.904;9.126;2023-11-21T02:57:12;2.13;;;1.40;;
60819;SDS011;46641;48.904;9.126;2023-11-21T03:02:02;1.52;;;1.42;;
60819;SDS011;46641;48.904;9.126;2023-11-21T03:06:52;1.50;;;1.17;;
60819;SDS011;46641;48.904;9.126;2023-11-21T03:11:42;4.47;;;1.53;;
60819;SDS011;46641;48.904;9.126;2023-11-21T03:16:33;1.30;;;1.08;;
60819;SDS011;46641;48.904;9.126;2023-11-21T03:21:23;1.40;;;1.30;;
60819;SDS011;46641;48.904;9.126;2023-11-21T03:26:13;1.37;;;0.97;;
60819;SDS011;46641;48.904;9.126;2023-11-21T03:31:04;2.37;;;1.20;;
60819;SDS011;46641;48.904;9.126;2023-11-21T03:35:56;2.17;;;1.50;;
60819;SDS011;46641;48.904;9.126;2023-11-21T03:40:46;2.53;;;0.98;;
60819;SDS011;46641;48.904;9.126;2023-11-21T03:45:37;1.70;;;1.27;;
60819;SDS011;46641;48.904;9.126;2023-11-21T03:50:28;1.42;;;1.30;;
60819;SDS011;46641;48.904;9.126;2023-11-21T03:55:19;1.93;;;1.10;;
60819;SDS011;46641;48.904;9.126;2023-11-21T04:00:09;1.27;;;0.90;;
60819;SDS011;46641;48.904;9.126;2023-11-21T04:05:00;2.23;;;1.20;;
60819;SDS011;46641;48.904;9.126;2023-11-21T04:09:50;2.37;;;1.00;;
60819;SDS011;46641;48.904;9.126;2023-11-21T04:14:40;1.13;;;1.00;;
60819;SDS011;46641;48.904;9.126;2023-11-21T04:19:31;1.38;;;1.20;;
60819;SDS011;46641;48.904;9.126;2023-11-21T04:24:21;1.15;;;0.80;;
60819;SDS011;46641;48.904;9.126;2023-11-21T04:29:11;2.00;;;1.20;;
60819;SDS011;46641;48.904;9.126;2023-11-21T04:34:01;1.30;;;1.20;;
60819;SDS011;46641;48.904;9.126;2023-11-21T04:38:54;1.33;;;1.20;;
60819;SDS011;46641;48.904;9.126;2023-11-21T04:43:44;1.53;;;1.13;;
60819;SDS011;46641;48.904;9.126;2023-11-21T04:48:34;1.50;;;0.80;;
60819;SDS011;46641;48.904;9.126;2023-11-21T04:53:24;1.60;;;1.27;;
60819;SDS011;46641;48.904;9.126;2023-11-21T04:58:15;2.73;;;1.20;;
60819;SDS011;46641;48.904;9.126;2023-11-21T05:03:06;1.13;;;1.02;;
60819;SDS011;46641;48.904;9.126;2023-11-21T05:07:57;0.80;;;0.80;;
60819;SDS011;46641;48.904;9.126;2023-11-21T05:12:47;1.40;;;1.20;;
60819;SDS011;46641;48.904;9.126;2023-11-21T05:17:37;1.00;;;1.00;;
60819;SDS011;46641;48.904;9.126;2023-11-21T05:22:34;0.87;;;0.87;;
60819;SDS011;46641;48.904;9.126;2023-11-21T05:27:24;2.30;;;1.10;;
60819;SDS011;46641;48.904;9.126;2023-11-21T05:32:15;1.42;;;1.00;;
60819;SDS011;46641;48.904;9.126;2023-11-21T05:37:06;2.03;;;1.20;;
60819;SDS011;46641;48.904;9.126;2023-11-21T05:41:56;1.27;;;1.17;;
60819;SDS011;46641;48.904;9.126;2023-11-21T05:46:47;2.50;;;1.27;;
60819;SDS011;46641;48.904;9.126;2023-11-21T05:51:38;1.50;;;1.40;;
60819;SDS011;46641;48.904;9.126;2023-11-21T05:56:28;0.60;;;0.60;;
60819;SDS011;46641;48.904;9.126;2023-11-21T06:01:19;1.90;;;1.20;;
60819;SDS011;46641;48.904;9.126;2023-11-21T06:06:09;1.40;;;1.30;;
60819;SDS011;46641;48.904;9.126;2023-11-21T06:10:59;1.20;;;1.10;;
60819;SDS011;46641;48.904;9.126;2023-11-21T06:15:50;1.88;;;1.10;;
60819;SDS011;46641;48.904;9.126;2023-11-21T06:20:41;1.70;;;1.40;;
60819;SDS011;46641;48.904;9.126;2023-11-21T06:25:31;3.70;;;1.30;;
60819;SDS011;46641;48.904;9.126;2023-11-21T06:30:26;1.98;;;1.80;;
60819;SDS011;46641;48.904;9.126;2023-11-21T06:35:16;1.00;;;1.00;;
60819;SDS011;46641;48.904;9.126;2023-11-21T06:40:06;2.30;;;1.10;;
60819;SDS011;46641;48.904;9.126;2023-11-21T06:44:57;1.57;;;1.37;;
60819;SDS011;46641;48.904;9.126;2023-11-21T06:49:48;1.30;;;1.20;;
60819;SDS011;46641;48.904;9.126;2023-11-21T06:54:39;1.77;;;1.27;;
60819;SDS011;46641;48.904;9.126;2023-11-21T06:59:29;1.93;;;1.40;;
60819;SDS011;46641;48.904;9.126;2023-11-21T07:04:20;1.70;;;1.60;;
60819;SDS011;46641;48.904;9.126;2023-11-21T07:09:10;2.25;;;1.20;;
60819;SDS011;46641;48.904;9.126;2023-11-21T07:14:01;1.50;;;1.10;;
60819;SDS011;46641;48.904;9.126;2023-11-21T07:18:57;2.27;;;1.03;;
60819;SDS011;46641;48.904;9.126;2023-11-21T07:23:47;1.80;;;1.10;;
60819;SDS011;46641;48.904;9.126;2023-11-21T07:28:37;1.45;;;1.35;;
60819;SDS011;46641;48.904;9.126;2023-11-21T07:33:28;2.80;;;1.40;;
60819;SDS011;46641;48.904;9.126;2023-11-21T07:38:18;7.03;;;1.47;;
60819;SDS011;46641;48.904;9.126;2023-11-21T07:43:08;1.73;;;1.20;;
60819;SDS011;46641;48.904;9.126;2023-11-21T07:48:00;1.23;;;1.13;;
60819;SDS011;46641;48.904;9.126;2023-11-21T07:52:53;2.07;;;1.50;;
60819;SDS011;46641;48.904;9.126;2023-11-21T07:57:44;3.20;;;1.60;;
60819;SDS011;46641;48.904;9.126;2023-11-21T08:02:34;1.80;;;1.47;;
60819;SDS011;46641;48.904;9.126;2023-11-21T08:07:25;1.60;;;1.40;;
60819;SDS011;46641;48.904;9.126;2023-11-21T08:12:16;1.33;;;1.23;;
60819;SDS011;46641;48.904;9.126;2023-11-21T08:17:07;1.60;;;1.50;;
60819;SDS011;46641;48.904;9.126;2023-11-21T08:22:00;1.70;;;1.60;;
60819;SDS011;46641;48.904;9.126;2023-11-21T08:26:50;1.83;;;1.40;;
60819;SDS011;46641;48.904;9.126;2023-11-21T08:31:42;2.17;;;1.50;;
60819;SDS011;46641;48.904;9.126;2023-11-21T08:36:32;2.22;;;2.03;;
60819;SDS011;46641;48.904;9.126;2023-11-21T08:41:22;1.77;;;1.67;;
60819;SDS011;46641;48.904;9.126;2023-11-21T08:46:13;3.83;;;1.80;;
60819;SDS011;46641;48.904;9.126;2023-11-21T08:51:03;1.73;;;1.57;;
60819;SDS011;46641;48.904;9.126;2023-11-21T08:55:54;1.63;;;1.53;;
60819;SDS011;46641;48.904;9.126;2023-11-21T09:00:45;1.73;;;1.63;;
60819;SDS011;46641;48.904;9.126;2023-11-21T09:05:39;1.57;;;1.47;;
60819;SDS011;46641;48.904;9.126;2023-11-21T09:10:29;1.63;;;1.50;;
60819;SDS011;46641;48.904;9.126;2023-11-21T09:15:20;1.30;;;1.20;;
60819;SDS011;46641;48.904;9.126;2023-11-21T09:20:10;1.67;;;1.57;;
60819;SDS011;46641;48.904;9.126;2023-11-21T09:25:01;1.00;;;1.00;;
60819;SDS011;46641;48.904;9.126;2023-11-21T09:29:55;1.30;;;1.20;;
60819;SDS011;46641;48.904;9.126;2023-11-21T09:34:45;1.30;;;1.20;;
60819;SDS011;46641;48.904;9.126;2023-11-21T09:39:35;1.20;;;1.10;;
60819;SDS011;46641;48.904;9.126;2023-11-21T09:44:29;1.00;;;1.00;;
60819;SDS011;46641;48.904;9.126;2023-11-21T09:49:27;1.43;;;1.33;;
60819;SDS011;46641;48.904;9.126;2023-11-21T09:54:19;1.53;;;1.43;;
60819;SDS011;46641;48.904;9.126;2023-11-21T09:59:12;1.17;;;1.07;;
60819;SDS011;46641;48.904;9.126;2023-11-21T10:04:05;0.90;;;0.90;;
60819;SDS011;46641;48.904;9.126;2023-11-21T10:09:01;1.00;;;1.00;;
60819;SDS011;46641;48.904;9.126;2023-11-21T10:13:54;1.20;;;0.90;;
60819;SDS011;46641;48.904;9.126;2023-11-21T10:18:48;4.43;;;1.30;;
60819;SDS011;46641;48.904;9.126;2023-11-21T10:23:42;1.43;;;1.20;;
60819;SDS011;46641;48.904;9.126;2023-11-21T10:28:35;1.43;;;1.30;;
60819;SDS011;46641;48.904;9.126;2023-11-21T10:33:27;1.30;;;1.20;;
60819;SDS011;46641;48.904;9.126;2023-11-21T10:38:19;1.73;;;1.23;;
60819;SDS011;46641;48.904;9.126;2023-11-21T10:43:13;1.70;;;1.20;;
60819;SDS011;46641;48.904;9.126;2023-11-21T10:48:05;2.97;;;1.50;;
60819;SDS011;46641;48.904;9.126;2023-11-21T10:52:57;1.70;;;1.60;;
60819;SDS011;46641;48.904;9.126;2023-11-21T10:57:48;1.87;;;1.47;;
60819;SDS011;46641;48.904;9.126;2023-11-21T11:02:41;1.70;;;1.50;;
60819;SDS011;46641;48.904;9.126;2023-11-21T11:07:32;2.00;;;1.53;;
60819;SDS011;46641;48.904;9.126;2023-11-21T11:12:25;1.60;;;1.50;;
60819;SDS011;46641;48.904;9.126;2023-11-21T11:17:16;1.63;;;1.53;;
60819;SDS011;46641;48.904;9.126;2023-11-21T11:22:17;2.10;;;2.00;;
60819;SDS011;46641;48.904;9.126;2023-11-21T11:32:58;1.40;;;1.30;;
60819;SDS011;46641;48.904;9.126;2023-11-21T11:38:00;1.50;;;1.40;;
60819;SDS011;46641;48.904;9.126;2023-11-21T11:42:57;1.43;;;1.40;;
60819;SDS011;46641;48.904;9.126;2023-11-21T11:47:56;1.60;;;1.50;;
60819;SDS011;46641;48.904;9.126;2023-11-21T11:52:48;1.80;;;1.43;;
60819;SDS011;46641;48.904;9.126;2023-11-21T11:57:42;1.00;;;1.00;;
60819;SDS011;46641;48.904;9.126;2023-11-21T12:02:33;1.00;;;1.00;;
60819;SDS011;46641;48.904;9.126;2023-11-21T12:07:24;1.00;;;1.00;;
60819;SDS011;46641;48.904;9.126;2023-11-21T12:12:31;0.90;;;0.90;;
60819;SDS011;46641;48.904;9.126;2023-11-21T12:17:22;1.37;;;1.37;;
60819;SDS011;46641;48.904;9.126;2023-11-21T12:22:13;1.47;;;1.37;;
60819;SDS011;46641;48.904;9.126;2023-11-21T12:27:04;1.87;;;1.77;;
60819;SDS011;46641;48.904;9.126;2023-11-21T12:31:55;2.58;;;2.38;;
60819;SDS011;46641;48.904;9.126;2023-11-21T12:36:46;3.60;;;3.30;;
60819;SDS011;46641;48.904;9.126;2023-11-21T12:41:36;2.67;;;2.00;;
60819;SDS011;46641;48.904;9.126;2023-11-21T12:46:27;2.47;;;2.28;;
60819;SDS011;46641;48.904;9.126;2023-11-21T12:51:23;1.80;;;1.70;;
60819;SDS011;46641;48.904;9.126;2023-11-21T12:56:13;3.40;;;3.10;;
60819;SDS011;46641;48.904;9.126;2023-11-21T13:01:06;3.67;;;3.37;;
60819;SDS011;46641;48.904;9.126;2023-11-21T13:06:01;3.07;;;2.33;;
60819;SDS011;46641;48.904;9.126;2023-11-21T13:10:55;4.30;;;3.90;;
60819;SDS011;46641;48.904;9.126;2023-11-21T13:15:47;2.90;;;2.17;;
60819;SDS011;46641;48.904;9.126;2023-11-21T13:20:39;3.57;;;2.67;;
60819;SDS011;46641;48.904;9.126;2023-11-21T13:25:29;3.00;;;2.63;;
60819;SDS011;46641;48.904;9.126;2023-11-21T13:30:21;3.80;;;2.77;;
60819;SDS011;46641;48.904;9.126;2023-11-21T13:35:17;2.97;;;2.00;;
60819;SDS011;46641;48.904;9.126;2023-11-21T13:40:10;4.07;;;2.27;;
60819;SDS011;46641;48.904;9.126;2023-11-21T13:45:04;2.90;;;1.83;;
60819;SDS011;46641;48.904;9.126;2023-11-21T13:49:55;1.50;;;1.40;;
60819;SDS011;46641;48.904;9.126;2023-11-21T13:54:46;3.08;;;1.90;;
60819;SDS011;46641;48.904;9.126;2023-11-21T13:59:37;2.77;;;2.30;;
60819;SDS011;46641;48.904;9.126;2023-11-21T14:04:27;2.10;;;1.90;;
60819;SDS011;46641;48.904;9.126;2023-11-21T14:09:21;2.80;;;2.53;;
60819;SDS011;46641;48.904;9.126;2023-11-21T14:14:14;2.40;;;2.20;;
60819;SDS011;46641;48.904;9.126;2023-11-21T14:19:05;2.47;;;2.27;;
60819;SDS011;46641;48.904;9.126;2023-11-21T14:24:05;2.50;;;2.17;;
60819;SDS011;46641;48.904;9.126;2023-11-21T14:28:59;10.07;;;7.13;;
60819;SDS011;46641;48.904;9.126;2023-11-21T14:33:49;6.97;;;5.57;;
60819;SDS011;46641;48.904;9.126;2023-11-21T14:38:40;5.80;;;5.30;;
60819;SDS011;46641;48.904;9.126;2023-11-21T14:43:30;2.50;;;2.30;;
60819;SDS011;46641;48.904;9.126;2023-11-21T14:48:25;3.20;;;2.20;;
60819;SDS011;46641;48.904;9.126;2023-11-21T14:53:37;2.70;;;2.33;;
60819;SDS011;46641;48.904;9.126;2023-11-21T14:58:38;2.67;;;2.47;;
60819;SDS011;46641;48.904;9.126;2023-11-21T15:03:29;2.97;;;2.63;;
60819;SDS011;46641;48.904;9.126;2023-11-21T15:08:23;2.80;;;2.60;;
60819;SDS011;46641;48.904;9.126;2023-11-21T15:13:21;4.60;;;2.90;;
60819;SDS011;46641;48.904;9.126;2023-11-21T15:18:14;7.63;;;6.90;;
60819;SDS011;46641;48.904;9.126;2023-11-21T15:23:04;3.17;;;2.90;;
60819;SDS011;46641;48.904;9.126;2023-11-21T15:27:56;4.13;;;3.83;;
60819;SDS011;46641;48.904;9.126;2023-11-21T15:32:46;4.45;;;4.05;;
60819;SDS011;46641;48.904;9.126;2023-11-21T15:37:36;4.67;;;4.27;;
60819;SDS011;46641;48.904;9.126;2023-11-21T15:42:27;4.30;;;4.00;;
60819;SDS011;46641;48.904;9.126;2023-11-21T15:47:17;10.50;;;8.77;;
60819;SDS011;46641;48.904;9.126;2023-11-21T15:52:08;6.17;;;5.40;;
60819;SDS011;46641;48.904;9.126;2023-11-21T15:57:00;13.85;;;12.57;;
60819;SDS011;46641;48.904;9.126;2023-11-21T16:01:50;9.03;;;8.13;;
60819;SDS011;46641;48.904;9.126;2023-11-21T16:06:41;11.23;;;10.13;;
60819;SDS011;46641;48.904;9.126;2023-11-21T16:11:31;7.93;;;7.23;;
60819;SDS011;46641;48.904;9.126;2023-11-21T16:16:23;5.10;;;4.70;;
60819;SDS011;46641;48.904;9.126;2023-11-21T16:21:14;4.20;;;3.80;;
60819;SDS011;46641;48.904;9.126;2023-11-21T16:26:05;4.20;;;3.83;;
60819;SDS011;46641;48.904;9.126;2023-11-21T16:30:55;4.40;;;3.80;;
60819;SDS011;46641;48.904;9.126;2023-11-21T16:35:46;7.83;;;5.37;;
60819;SDS011;46641;48.904;9.126;2023-11-21T16:40:37;4.87;;;4.37;;
60819;SDS011;46641;48.904;9.126;2023-11-21T16:45:27;5.00;;;4.23;;
60819;SDS011;46641;48.904;9.126;2023-11-21T16:50:17;4.63;;;4.23;;
60819;SDS011;46641;48.904;9.126;2023-11-21T16:55:08;3.92;;;3.50;;
60819;SDS011;46641;48.904;9.126;2023-11-21T16:59:59;5.30;;;4.03;;
60819;SDS011;46641;48.904;9.126;2023-11-21T17:04:50;4.83;;;4.30;;
60819;SDS011;46641;48.904;9.126;2023-11-21T17:09:40;5.80;;;5.30;;
60819;SDS011;46641;48.904;9.126;2023-11-21T17:14:31;7.30;;;6.60;;
60819;SDS011;46641;48.904;9.126;2023-11-21T17:19:21;7.20;;;6.23;;
60819;SDS011;46641;48.904;9.126;2023-11-21T17:24:11;6.65;;;6.05;;
60819;SDS011;46641;48.904;9.126;2023-11-21T17:29:02;4.73;;;4.20;;
60819;SDS011;46641;48.904;9.126;2023-11-21T17:33:52;6.50;;;6.00;;
60819;SDS011;46641;48.904;9.126;2023-11-21T17:38:44;5.33;;;4.83;;
60819;SDS011;46641;48.904;9.126;2023-11-21T17:43:34;5.30;;;4.77;;
60819;SDS011;46641;48.904;9.126;2023-11-21T17:48:29;5.27;;;4.83;;
60819;SDS011;46641;48.904;9.126;2023-11-21T17:53:20;4.73;;;4.20;;
60819;SDS011;46641;48.904;9.126;2023-11-21T17:58:12;4.50;;;4.10;;
60819;SDS011;46641;48.904;9.126;2023-11-21T18:03:02;5.40;;;4.63;;
60819;SDS011;46641;48.904;9.126;2023-11-21T18:07:53;5.17;;;4.50;;
60819;SDS011;46641;48.904;9.126;2023-11-21T18:12:44;4.47;;;4.00;;
60819;SDS011;46641;48.904;9.126;2023-11-21T18:17:34;5.40;;;4.05;;
60819;SDS011;46641;48.904;9.126;2023-11-21T18:22:25;5.23;;;4.73;;
60819;SDS011;46641;48.904;9.126;2023-11-21T18:27:17;4.77;;;4.10;;
60819;SDS011;46641;48.904;9.126;2023-11-21T18:32:07;6.57;;;4.70;;
60819;SDS011;46641;48.904;9.126;2023-11-21T18:37:00;4.17;;;3.77;;
60819;SDS011;46641;48.904;9.126;2023-11-21T18:41:50;5.03;;;4.60;;
60819;SDS011;46641;48.904;9.126;2023-11-21T18:46:41;5.47;;;4.10;;
60819;SDS011;46641;48.904;9.126;2023-11-21T18:51:32;4.13;;;3.67;;
60819;SDS011;46641;48.904;9.126;2023-11-21T18:56:24;6.50;;;4.27;;
60819;SDS011;46641;48.904;9.126;2023-11-21T19:01:28;4.67;;;4.23;;
60819;SDS011;46641;48.904;9.126;2023-11-21T19:06:20;5.63;;;4.97;;
60819;SDS011;46641;48.904;9.126;2023-11-21T19:11:11;4.20;;;3.77;;
60819;SDS011;46641;48.904;9.126;2023-11-21T19:16:01;8.93;;;8.00;;
60819;SDS011;46641;48.904;9.126;2023-11-21T19:20:52;9.37;;;6.43;;
60819;SDS011;46641;48.904;9.126;2023-11-21T19:25:42;7.63;;;5.07;;
60819;SDS011;46641;48.904;9.126;2023-11-21T19:30:32;4.40;;;4.00;;
60819;SDS011;46641;48.904;9.126;2023-11-21T19:35:24;5.00;;;4.20;;
60819;SDS011;46641;48.904;9.126;2023-11-21T19:40:16;5.00;;;4.20;;
60819;SDS011;46641;48.904;9.126;2023-11-21T19:45:13;4.87;;;4.13;;
60819;SDS011;46641;48.904;9.126;2023-11-21T19:50:04;5.77;;;4.67;;
60819;SDS011;46641;48.904;9.126;2023-11-21T19:54:57;6.07;;;4.70;;
60819;SDS011;46641;48.904;9.126;2023-11-21T19:59:47;5.63;;;5.07;;
60819;SDS011;46641;48.904;9.126;2023-11-21T20:04:38;5.20;;;4.27;;
60819;SDS011;46641;48.904;9.126;2023-11-21T20:09:29;6.80;;;4.83;;
60819;SDS011;46641;48.904;9.126;2023-11-21T20:14:20;6.33;;;4.80;;
60819;SDS011;46641;48.904;9.126;2023-11-21T20:19:11;6.07;;;4.53;;
60819;SDS011;46641;48.904;9.126;2023-11-21T20:24:01;4.73;;;4.17;;
60819;SDS011;46641;48.904;9.126;2023-11-21T20:28:52;5.80;;;4.43;;
60819;SDS011;46641;48.904;9.126;2023-11-21T20:33:43;6.10;;;4.60;;
60819;SDS011;46641;48.904;9.126;2023-11-21T20:38:34;7.47;;;4.50;;
60819;SDS011;46641;48.904;9.126;2023-11-21T20:43:24;6.67;;;4.83;;
60819;SDS011;46641;48.904;9.126;2023-11-21T20:48:15;7.00;;;5.17;;
60819;SDS011;46641;48.904;9.126;2023-11-21T20:53:08;8.27;;;5.43;;
60819;SDS011;46641;48.904;9.126;2023-11-21T20:58:00;8.13;;;5.63;;
60819;SDS011;46641;48.904;9.126;2023-11-21T21:02:50;7.90;;;5.72;;
60819;SDS011;46641;48.904;9.126;2023-11-21T21:07:42;5.87;;;4.97;;
60819;SDS011;46641;48.904;9.126;2023-11-21T21:12:32;6.83;;;5.50;;
60819;SDS011;46641;48.904;9.126;2023-11-21T21:17:23;8.60;;;5.35;;
60819;SDS011;46641;48.904;9.126;2023-11-21T21:22:15;7.40;;;5.40;;
60819;SDS011;46641;48.904;9.126;2023-11-21T21:27:06;5.57;;;4.70;;
60819;SDS011;46641;48.904;9.126;2023-11-21T21:31:56;6.13;;;5.03;;
60819;SDS011;46641;48.904;9.126;2023-11-21T21:36:46;8.33;;;5.83;;
60819;SDS011;46641;48.904;9.126;2023-11-21T21:41:38;9.93;;;5.77;;
60819;SDS011;46641;48.904;9.126;2023-11-21T21:46:28;6.35;;;5.43;;
60819;SDS011;46641;48.904;9.126;2023-11-21T21:51:19;7.05;;;5.35;;
60819;SDS011;46641;48.904;9.126;2023-11-21T21:56:09;8.90;;;5.80;;
60819;SDS011;46641;48.904;9.126;2023-11-21T22:01:00;6.23;;;5.47;;
60819;SDS011;46641;48.904;9.126;2023-11-21T22:05:52;7.63;;;6.00;;
60819;SDS011;46641;48.904;9.126;2023-11-21T22:10:43;8.23;;;5.23;;
60819;SDS011;46641;48.904;9.126;2023-11-21T22:15:33;7.27;;;5.37;;
60819;SDS011;46641;48.904;9.126;2023-11-21T22:20:24;7.53;;;5.20;;
60819;SDS011;46641;48.904;9.126;2023-11-21T22:25:15;10.67;;;6.13;;
60819;SDS011;46641;48.904;9.126;2023-11-21T22:30:05;5.87;;;4.70;;
60819;SDS011;46641;48.904;9.126;2023-11-21T22:34:58;5.43;;;4.83;;
60819;SDS011;46641;48.904;9.126;2023-11-21T22:39:48;8.23;;;5.30;;
60819;SDS011;46641;48.904;9.126;2023-11-21T22:44:41;6.53;;;5.35;;
60819;SDS011;46641;48.904;9.126;2023-11-21T22:49:31;6.80;;;4.57;;
60819;SDS011;46641;48.904;9.126;2023-11-21T22:54:22;6.57;;;4.82;;
60819;SDS011;46641;48.904;9.126;2023-11-21T22:59:12;5.87;;;4.73;;
60819;SDS011;46641;48.904;9.126;2023-11-21T23:04:02;6.07;;;4.47;;
60819;SDS011;46641;48.904;9.126;2023-11-21T23:08:54;6.43;;;5.07;;
60819;SDS011;46641;48.904;9.126;2023-11-21T23:13:44;7.25;;;5.30;;
60819;SDS011;46641;48.904;9.126;2023-11-21T23:18:34;5.87;;;4.80;;
60819;SDS011;46641;48.904;9.126;2023-11-21T23:23:25;5.67;;;4.43;;
60819;SDS011;46641;48.904;9.126;2023-11-21T23:28:17;5.67;;;4.73;;
60819;SDS011;46641;48.904;9.126;2023-11-21T23:33:10;5.83;;;4.73;;
60819;SDS011;46641;48.904;9.126;2023-11-21T23:38:01;8.10;;;5.57;;
60819;SDS011;46641;48.904;9.126;2023-11-21T23:42:51;3.72;;;2.70;;
60819;SDS011;46641;48.904;9.126;2023-11-21T23:47:41;2.88;;;2.67;;
60819;SDS011;46641;48.904;9.126;2023-11-21T23:52:31;3.20;;;2.90;;
60819;SDS011;46641;48.904;9.126;2023-11-21T23:57:22;3.30;;;3.00;;
